Time;durP1;ratioP1;P1;durP2;ratioP2;P2;SDS_P1;SDS_P2;PMS_P1;PMS_P2;Temp;Humidity;BMP_temperature;BMP_pressure;BME280_temperature;BME280_humidity;BME280_pressure;Samples;Min_cycle;Max_cycle;Signal;HPM_P1;HPM_P2
2022/03/05 00:00:25;;;;;;;13.80;9.17;;;;;;;3.80;47.20;95749.97;5032072;28;20225;-84
2022/03/05 00:02:52;;;;;;;14.60;9.63;;;;;;;3.58;48.11;95747.63;5032491;28;20214;-84
2022/03/05 00:05:18;;;;;;;13.40;10.00;;;;;;;3.66;48.10;95740.13;5032650;28;20251;-85
2022/03/05 00:07:45;;;;;;;13.27;9.87;;;;;;;3.70;47.13;95750.88;5032577;28;20198;-83
2022/03/05 00:10:12;;;;;;;11.37;9.40;;;;;;;3.56;48.17;95746.16;5032247;28;20225;-86
2022/03/05 00:12:38;;;;;;;13.67;9.83;;;;;;;3.55;48.53;95747.09;5034043;28;20892;-81
2022/03/05 00:15:06;;;;;;;14.50;10.00;;;;;;;3.61;47.92;95752.47;5032791;28;20210;-84
2022/03/05 00:17:34;;;;;;;16.27;10.03;;;;;;;3.73;47.96;95748.88;5027166;28;20237;-83
2022/03/05 00:20:00;;;;;;;12.10;9.37;;;;;;;3.80;47.49;95749.97;5032845;28;20194;-84
2022/03/05 00:22:27;;;;;;;13.07;9.83;;;;;;;3.86;47.84;95751.16;5033255;28;20233;-83
2022/03/05 00:24:53;;;;;;;12.53;9.63;;;;;;;3.89;47.72;95750.91;5032987;28;20297;-85
2022/03/05 00:27:20;;;;;;;12.13;9.50;;;;;;;3.99;47.47;95744.13;5033340;28;20198;-81
2022/03/05 00:29:46;;;;;;;13.17;9.77;;;;;;;3.93;47.49;95746.38;5032284;28;20599;-85
2022/03/05 00:32:12;;;;;;;13.87;9.97;;;;;;;4.00;47.27;95748.28;5032477;28;20709;-84
2022/03/05 00:34:40;;;;;;;12.07;9.87;;;;;;;3.88;48.07;95745.94;5033455;28;20199;-84
2022/03/05 00:37:08;;;;;;;14.50;10.43;;;;;;;3.63;48.07;95750.59;5033784;28;20217;-86
2022/03/05 00:39:35;;;;;;;13.90;10.30;;;;;;;3.69;48.34;95749.25;5032958;28;20191;-85
2022/03/05 00:42:02;;;;;;;13.90;10.20;;;;;;;3.83;47.75;95750.66;5032346;28;20233;-85
2022/03/05 00:44:29;;;;;;;14.50;10.00;;;;;;;3.88;48.03;95743.41;5033403;28;20256;-86
2022/03/05 00:46:56;;;;;;;12.90;9.93;;;;;;;3.91;47.99;95741.41;5032506;28;20226;-82
2022/03/05 00:49:22;;;;;;;14.70;10.47;;;;;;;3.93;48.00;95737.00;5032763;28;20197;-85
2022/03/05 00:51:50;;;;;;;13.60;9.67;;;;;;;3.94;47.69;95737.78;5031579;28;20745;-85
2022/03/05 00:54:17;;;;;;;13.40;10.30;;;;;;;3.97;47.67;95740.88;5033372;28;20198;-83
2022/03/05 00:56:43;;;;;;;14.40;10.00;;;;;;;3.96;48.11;95735.91;5031732;28;20201;-86
2022/03/05 00:59:10;;;;;;;15.00;10.10;;;;;;;3.69;48.15;95732.25;5032659;28;20564;-84
2022/03/05 01:01:36;;;;;;;13.20;10.23;;;;;;;3.40;49.19;95732.19;5031833;28;20226;-83
2022/03/05 01:04:03;;;;;;;15.07;10.70;;;;;;;3.15;49.92;95739.44;5032628;28;20198;-87
2022/03/05 01:06:30;;;;;;;14.23;9.87;;;;;;;3.34;48.99;95735.22;5032535;28;20657;-85
2022/03/05 01:08:58;;;;;;;13.93;9.93;;;;;;;3.32;49.67;95728.66;5032688;28;20233;-83
2022/03/05 01:11:25;;;;;;;12.83;10.20;;;;;;;3.37;49.18;95732.44;5031547;28;20226;-85
2022/03/05 01:13:51;;;;;;;15.10;10.37;;;;;;;3.47;49.00;95735.78;5032724;28;20743;-84
2022/03/05 01:16:18;;;;;;;13.17;9.77;;;;;;;3.55;49.25;95732.63;5032731;28;20206;-84
2022/03/05 01:18:45;;;;;;;13.50;10.83;;;;;;;3.63;48.63;95737.06;5032478;28;20194;-85
2022/03/05 01:21:12;;;;;;;12.80;10.07;;;;;;;3.62;49.04;95731.19;5031573;28;20238;-84
2022/03/05 01:23:38;;;;;;;14.77;11.07;;;;;;;3.55;49.36;95736.91;5032365;28;20218;-86
2022/03/05 01:26:06;;;;;;;18.20;10.20;;;;;;;3.29;50.23;95742.44;5032103;28;20198;-85
2022/03/05 01:28:33;;;;;;;15.00;10.60;;;;;;;3.27;49.65;95735.88;5032018;28;20209;-85
2022/03/05 01:30:59;;;;;;;14.40;10.47;;;;;;;3.37;49.33;95737.50;5031868;28;20612;-85
2022/03/05 01:33:26;;;;;;;14.50;10.53;;;;;;;3.47;49.37;95735.00;5032467;28;20218;-85
2022/03/05 01:35:52;;;;;;;15.70;10.23;;;;;;;3.55;49.23;95731.81;5031939;28;20198;-85
2022/03/05 01:38:19;;;;;;;14.37;10.83;;;;;;;3.59;48.85;95730.63;5032077;28;20198;-85
2022/03/05 01:40:47;;;;;;;13.37;9.70;;;;;;;3.60;49.01;95730.50;5031139;28;20225;-84
2022/03/05 01:43:15;;;;;;;11.97;9.77;;;;;;;3.59;48.96;95736.53;5030896;28;20634;-85
2022/03/05 01:45:41;;;;;;;13.20;10.17;;;;;;;3.60;48.86;95730.50;5032220;28;20665;-84
2022/03/05 01:48:08;;;;;;;15.13;11.17;;;;;;;3.61;48.94;95736.38;5031624;28;20197;-83
2022/03/05 01:50:35;;;;;;;13.67;10.27;;;;;;;3.56;49.12;95734.22;5031694;28;20237;-84
2022/03/05 01:53:01;;;;;;;13.33;10.43;;;;;;;3.37;49.27;95731.63;5035741;28;20229;-85
2022/03/05 01:55:28;;;;;;;13.13;10.20;;;;;;;3.35;49.59;95731.75;5036163;28;20205;-84
2022/03/05 01:57:55;;;;;;;13.90;10.80;;;;;;;3.34;49.55;95730.13;5036229;28;20205;-85
2022/03/05 02:00:23;;;;;;;14.97;11.13;;;;;;;3.37;49.43;95734.16;5033998;28;20595;-85
2022/03/05 02:02:49;;;;;;;15.20;10.67;;;;;;;3.35;49.57;95728.41;5035849;28;20218;-86
2022/03/05 02:05:16;;;;;;;13.40;10.47;;;;;;;3.36;49.12;95730.81;5036179;28;20661;-86
2022/03/05 02:07:43;;;;;;;15.80;10.80;;;;;;;3.16;49.97;95730.88;5036026;28;20670;-86
2022/03/05 02:10:10;;;;;;;13.93;10.80;;;;;;;3.10;49.72;95727.09;5035218;28;20329;-85
2022/03/05 02:12:38;;;;;;;13.50;10.23;;;;;;;3.12;50.23;95730.31;5035913;28;20594;-85
2022/03/05 02:15:07;;;;;;;14.47;10.07;;;;;;;3.21;49.75;95728.75;5036381;28;20198;-85
2022/03/05 02:17:37;;;;;;;14.43;10.23;;;;;;;3.21;50.23;95721.13;5036183;28;20221;-84
2022/03/05 02:20:04;;;;;;;12.90;10.30;;;;;;;3.23;49.64;95727.69;5035125;28;20237;-86
2022/03/05 02:22:32;;;;;;;13.40;10.50;;;;;;;2.98;50.50;95723.81;5035777;28;20221;-84
2022/03/05 02:24:59;;;;;;;15.60;11.50;;;;;;;2.96;50.14;95722.34;5035346;28;20198;-85
2022/03/05 02:27:27;;;;;;;15.27;10.83;;;;;;;2.93;50.74;95725.13;5036186;28;20304;-85
2022/03/05 02:29:57;;;;;;;14.43;10.33;;;;;;;3.01;50.55;95731.22;5034308;28;20203;-85
2022/03/05 02:32:25;;;;;;;15.03;10.90;;;;;;;3.10;49.80;95727.09;5028825;28;20218;-82
2022/03/05 02:34:51;;;;;;;12.33;9.87;;;;;;;3.18;49.95;95721.38;5034940;28;20202;-83
2022/03/05 02:37:18;;;;;;;12.57;9.90;;;;;;;3.05;50.47;95721.59;5035512;28;20205;-86
2022/03/05 02:39:47;;;;;;;13.13;9.97;;;;;;;3.03;49.99;95718.38;5035486;28;20560;-85
2022/03/05 02:42:15;;;;;;;14.13;10.60;;;;;;;3.03;50.18;95708.19;5034099;28;20225;-84
2022/03/05 02:44:42;;;;;;;13.37;10.03;;;;;;;3.08;49.72;95709.41;5035285;28;20198;-85
2022/03/05 02:47:08;;;;;;;14.70;9.93;;;;;;;2.92;50.57;95706.53;5035044;28;20201;-85
2022/03/05 02:49:35;;;;;;;14.27;10.63;;;;;;;2.78;50.39;95700.03;5035284;28;20205;-84
2022/03/05 02:52:02;;;;;;;13.93;10.10;;;;;;;2.87;50.85;95700.22;5033535;28;20256;-82
2022/03/05 02:54:29;;;;;;;12.40;10.13;;;;;;;2.94;50.21;95704.66;5035994;28;20792;-83
2022/03/05 02:56:57;;;;;;;13.47;10.30;;;;;;;2.99;50.64;95707.63;5034522;28;20202;-84
2022/03/05 02:59:25;;;;;;;13.50;10.10;;;;;;;3.03;50.28;95703.91;5035228;28;20202;-84
2022/03/05 03:01:51;;;;;;;16.87;10.50;;;;;;;3.03;50.30;95703.91;5034034;28;20226;-85
2022/03/05 03:04:18;;;;;;;11.67;9.90;;;;;;;2.95;50.66;95697.84;5034421;28;20194;-83
2022/03/05 03:06:44;;;;;;;13.97;9.67;;;;;;;2.94;50.73;95691.94;5035208;28;20289;-86
2022/03/05 03:09:11;;;;;;;13.63;10.00;;;;;;;2.97;50.50;95690.88;5034658;28;20199;-84
2022/03/05 03:11:37;;;;;;;13.10;9.97;;;;;;;2.97;50.68;95689.16;5034339;28;20225;-84
2022/03/05 03:14:07;;;;;;;13.73;9.97;;;;;;;2.68;51.47;95696.66;5033745;28;20748;-84
2022/03/05 03:16:33;;;;;;;13.57;10.13;;;;;;;2.60;51.33;95693.91;5035162;28;20194;-85
2022/03/05 03:19:00;;;;;;;14.53;10.10;;;;;;;2.33;52.95;95689.31;5033994;28;20252;-85
2022/03/05 03:21:26;;;;;;;16.03;11.07;;;;;;;2.31;52.71;95682.78;5028194;28;20222;-84
2022/03/05 03:23:52;;;;;;;14.57;10.47;;;;;;;2.35;52.64;95676.50;5035213;28;20214;-85
2022/03/05 03:26:19;;;;;;;15.07;10.13;;;;;;;2.45;52.24;95684.19;5035413;28;20194;-83
2022/03/05 03:28:45;;;;;;;13.63;10.53;;;;;;;2.53;52.12;95690.25;5034082;28;20198;-85
2022/03/05 03:31:13;;;;;;;14.37;10.37;;;;;;;2.61;51.81;95685.38;5033323;28;20570;-85
2022/03/05 03:33:40;;;;;;;13.33;10.80;;;;;;;2.65;51.94;95689.28;5034718;28;20275;-85
2022/03/05 03:36:06;;;;;;;13.30;10.60;;;;;;;2.67;51.97;95682.34;5034702;28;20258;-85
2022/03/05 03:38:32;;;;;;;15.63;11.60;;;;;;;2.67;52.22;95678.97;5034533;28;20205;-87
2022/03/05 03:40:59;;;;;;;16.03;11.03;;;;;;;2.65;51.91;95686.72;5033666;28;20234;-85
2022/03/05 03:43:26;;;;;;;14.53;10.70;;;;;;;2.73;52.15;95686.09;5034343;28;20222;-85
2022/03/05 03:45:52;;;;;;;14.47;10.27;;;;;;;2.80;51.34;95692.28;5034090;28;20198;-88
2022/03/05 03:48:20;;;;;;;13.97;11.17;;;;;;;2.82;51.65;95689.63;5033881;28;20473;-86
2022/03/05 03:50:46;;;;;;;14.50;10.13;;;;;;;2.73;51.97;95689.44;5033749;28;20750;-85
2022/03/05 03:53:16;;;;;;;15.27;10.97;;;;;;;2.48;52.40;95689.03;5033333;28;20584;-86
2022/03/05 03:55:42;;;;;;;13.77;10.30;;;;;;;2.58;52.29;95692.44;5033891;28;20202;-84
2022/03/05 03:58:09;;;;;;;14.73;10.73;;;;;;;2.62;51.86;95693.78;5033352;28;20198;-86
2022/03/05 04:00:35;;;;;;;13.80;10.57;;;;;;;2.68;52.23;95696.66;5033024;28;20226;-85
2022/03/05 04:03:02;;;;;;;13.60;9.97;;;;;;;2.71;52.16;95698.09;5033462;28;20211;-85
2022/03/05 04:05:30;;;;;;;13.53;10.30;;;;;;;2.74;51.91;95701.22;5029108;28;20288;-84
2022/03/05 04:10:55;;;;;;;13.07;10.10;;;;;;;2.75;51.71;95696.94;5007380;28;20261;-86
2022/03/05 04:13:22;;;;;;;13.70;10.57;;;;;;;2.68;52.06;95698.38;5009460;28;20218;-86
2022/03/05 04:15:49;;;;;;;14.43;10.20;;;;;;;2.69;51.89;95697.47;5019633;28;20284;-83
2022/03/05 04:18:15;;;;;;;13.30;10.40;;;;;;;2.68;51.70;95704.28;5033111;28;20543;-86
2022/03/05 04:20:43;;;;;;;17.27;10.70;;;;;;;2.70;52.12;95702.38;5032688;28;20226;-86
2022/03/05 04:23:09;;;;;;;14.73;10.87;;;;;;;2.69;52.31;95710.94;5032362;28;21174;-85
2022/03/05 04:25:36;;;;;;;14.73;10.40;;;;;;;2.64;52.25;95714.81;5032915;28;20198;-84
2022/03/05 04:28:03;;;;;;;13.00;10.30;;;;;;;2.67;51.69;95723.00;5032245;28;20205;-84
2022/03/05 04:30:30;;;;;;;14.17;10.83;;;;;;;2.64;52.23;95722.44;5032533;28;20226;-84
2022/03/05 04:32:56;;;;;;;14.17;10.87;;;;;;;2.60;52.29;95709.16;5032853;28;20276;-86
2022/03/05 04:35:23;;;;;;;14.63;11.00;;;;;;;2.65;51.80;95704.53;5033165;28;20221;-83
2022/03/05 04:37:51;;;;;;;14.33;10.60;;;;;;;2.60;52.49;95714.25;5032814;28;20229;-85
2022/03/05 04:40:19;;;;;;;16.10;11.47;;;;;;;2.56;52.87;95717.97;5031504;28;20272;-85
2022/03/05 04:42:45;;;;;;;14.13;10.50;;;;;;;2.57;52.46;95714.50;5031974;28;20257;-85
2022/03/05 04:45:13;;;;;;;15.23;10.47;;;;;;;2.52;52.87;95715.78;5032638;28;20202;-86
2022/03/05 04:47:40;;;;;;;15.37;11.27;;;;;;;2.45;52.71;95724.84;5032484;28;20202;-84
2022/03/05 04:50:09;;;;;;;13.90;10.67;;;;;;;2.37;53.39;95721.19;5031352;28;20245;-82
2022/03/05 04:52:36;;;;;;;14.67;10.47;;;;;;;2.35;53.05;95715.41;5032662;28;20218;-85
2022/03/05 04:55:05;;;;;;;12.87;10.47;;;;;;;2.34;53.50;95713.81;5032918;28;20206;-85
2022/03/05 04:57:31;;;;;;;14.87;10.73;;;;;;;2.38;52.67;95717.72;5032926;28;20217;-86
2022/03/05 05:00:01;;;;;;;14.60;10.50;;;;;;;2.32;53.22;95712.31;5032091;28;20201;-85
2022/03/05 05:02:27;;;;;;;15.23;9.53;;;;;;;2.20;53.58;95716.66;5031732;28;20218;-82
2022/03/05 05:04:53;;;;;;;12.17;9.90;;;;;;;2.08;53.81;95717.63;5032014;28;20202;-85
2022/03/05 05:07:20;;;;;;;15.13;10.60;;;;;;;1.95;54.86;95720.31;5032935;28;20194;-86
2022/03/05 05:09:46;;;;;;;13.50;10.20;;;;;;;2.04;53.77;95721.31;5032221;28;20202;-83
2022/03/05 05:12:14;;;;;;;14.00;10.37;;;;;;;2.14;53.76;95718.84;5032798;28;20244;-85
2022/03/05 05:14:41;;;;;;;15.33;11.03;;;;;;;2.19;53.52;95722.66;5032620;28;20705;-85
2022/03/05 05:17:07;;;;;;;13.27;10.13;;;;;;;2.25;53.39;95727.25;5032354;28;20665;-86
2022/03/05 05:19:33;;;;;;;13.07;9.87;;;;;;;2.27;53.61;95722.06;5032081;28;20244;-84
2022/03/05 05:22:02;;;;;;;13.47;10.30;;;;;;;2.31;53.36;95720.88;5031137;28;20229;-85
2022/03/05 05:24:29;;;;;;;15.10;10.53;;;;;;;2.30;53.37;95727.69;5032397;28;20197;-85
2022/03/05 05:26:57;;;;;;;13.67;9.93;;;;;;;2.28;53.67;95721.94;5031629;28;20202;-85
2022/03/05 05:29:25;;;;;;;13.57;10.30;;;;;;;2.25;53.81;95722.16;5031750;28;20272;-84
2022/03/05 05:31:52;;;;;;;15.27;10.90;;;;;;;2.15;53.96;95713.66;5030551;28;20253;-86
2022/03/05 05:34:19;;;;;;;15.13;10.67;;;;;;;2.10;54.33;95723.41;5031498;28;20221;-85
2022/03/05 05:36:45;;;;;;;15.67;10.97;;;;;;;1.80;55.51;95726.59;5031989;28;20709;-85
2022/03/05 05:39:13;;;;;;;15.17;10.93;;;;;;;1.81;55.31;95722.31;5031274;28;20221;-83
2022/03/05 05:41:40;;;;;;;16.17;11.60;;;;;;;1.87;55.31;95725.19;5030932;28;20237;-85
2022/03/05 05:44:09;;;;;;;16.23;10.80;;;;;;;1.77;55.33;95726.81;5031436;28;20232;-85
2022/03/05 05:46:37;;;;;;;15.73;11.47;;;;;;;1.58;56.36;95735.03;5031756;28;20194;-85
2022/03/05 05:49:04;;;;;;;15.43;10.70;;;;;;;1.76;55.49;95742.16;5031548;28;20284;-85
2022/03/05 05:51:32;;;;;;;16.70;10.63;;;;;;;1.89;55.24;95736.03;5042309;28;20221;-85
2022/03/05 05:53:59;;;;;;;14.27;10.63;;;;;;;1.97;55.32;95735.41;5031576;28;20316;-84
2022/03/05 05:56:26;;;;;;;13.67;10.83;;;;;;;2.04;55.01;95736.56;5031792;28;20195;-85
2022/03/05 05:58:52;;;;;;;14.77;10.87;;;;;;;2.12;55.06;95741.81;5031486;28;20187;-85
2022/03/05 06:01:19;;;;;;;15.07;10.60;;;;;;;2.14;55.17;95739.97;5030487;28;20320;-84
2022/03/05 06:03:46;;;;;;;16.87;11.50;;;;;;;2.17;55.10;95744.00;5031528;28;20214;-84
2022/03/05 06:06:13;;;;;;;15.97;11.57;;;;;;;2.19;54.79;95742.97;5031400;28;20614;-86
2022/03/05 06:08:40;;;;;;;14.30;11.60;;;;;;;2.21;54.92;95747.94;5032224;28;20208;-86
2022/03/05 06:11:07;;;;;;;14.00;11.07;;;;;;;2.24;55.16;95742.63;5030487;28;20230;-88
2022/03/05 06:13:33;;;;;;;14.07;10.63;;;;;;;2.28;54.84;95739.72;5031375;28;20222;-87
2022/03/05 06:15:59;;;;;;;15.73;11.63;;;;;;;2.32;55.17;95748.69;5031985;28;20194;-86
2022/03/05 06:18:26;;;;;;;15.23;10.53;;;;;;;2.39;64.53;95749.00;5031490;28;20198;-84
2022/03/05 06:20:54;;;;;;;13.93;10.97;;;;;;;2.35;55.83;95750.97;5030304;28;20222;-86
2022/03/05 06:23:21;;;;;;;15.87;11.93;;;;;;;2.43;55.04;95753.72;5030670;28;20226;-84
2022/03/05 06:25:47;;;;;;;14.90;11.30;;;;;;;2.47;54.63;95756.84;5030977;28;20212;-87
2022/03/05 06:28:13;;;;;;;15.97;11.40;;;;;;;2.45;55.22;95756.16;5031255;28;20242;-87
2022/03/05 06:30:40;;;;;;;14.43;11.60;;;;;;;2.48;54.72;95750.81;5030485;28;20234;-85
2022/03/05 06:33:07;;;;;;;16.10;11.83;;;;;;;2.59;54.72;95757.56;5031378;28;20741;-86
2022/03/05 06:35:33;;;;;;;15.93;12.23;;;;;;;2.77;54.26;95763.72;5031355;28;20213;-82
2022/03/05 06:38:01;;;;;;;16.27;11.77;;;;;;;3.03;53.34;95759.06;5032809;28;20198;-86
2022/03/05 06:40:28;;;;;;;16.80;11.77;;;;;;;3.29;53.23;95765.31;5034256;28;20285;-85
2022/03/05 06:42:55;;;;;;;15.53;11.77;;;;;;;3.53;52.89;95766.75;5035250;28;20236;-85
2022/03/05 06:45:22;;;;;;;16.33;11.40;;;;;;;3.70;52.09;95769.50;5035276;28;20724;-86
2022/03/05 06:47:49;;;;;;;18.10;12.27;;;;;;;3.95;51.82;95773.31;5034953;28;20369;-85
2022/03/05 06:50:15;;;;;;;15.43;11.67;;;;;;;3.86;52.16;95769.00;5033407;28;20225;-85
2022/03/05 06:52:42;;;;;;;16.03;11.40;;;;;;;4.09;51.42;95769.59;5034815;28;20739;-87
2022/03/05 06:55:13;;;;;;;17.90;12.37;;;;;;;4.30;50.61;95777.94;5031669;28;20218;-83
2022/03/05 06:57:40;;;;;;;18.43;11.60;;;;;;;4.47;50.27;95771.34;5028584;28;20261;-85
2022/03/05 07:00:08;;;;;;;15.40;12.00;;;;;;;4.53;50.27;95775.94;5033561;28;20229;-85
2022/03/05 07:02:35;;;;;;;14.97;11.83;;;;;;;4.63;49.87;95774.16;5034739;28;20709;-85
2022/03/05 07:05:01;;;;;;;19.43;12.20;;;;;;;4.78;49.42;95772.81;5034588;28;20198;-83
2022/03/05 07:07:28;;;;;;;15.90;12.57;;;;;;;4.64;49.82;95768.13;5034151;28;20202;-85
2022/03/05 07:09:54;;;;;;;17.53;12.63;;;;;;;4.22;51.00;95774.44;5034477;28;20195;-85
2022/03/05 07:12:22;;;;;;;17.67;12.77;;;;;;;4.35;51.29;95774.97;5033879;28;20321;-82
2022/03/05 07:14:49;;;;;;;15.50;12.00;;;;;;;4.83;50.35;95772.41;5034291;28;20218;-85
2022/03/05 07:17:16;;;;;;;15.73;13.10;;;;;;;5.11;49.44;95775.84;5034019;28;20647;-83
2022/03/05 07:19:43;;;;;;;18.30;13.10;;;;;;;5.28;48.74;95777.69;5033889;28;20202;-85
2022/03/05 07:22:09;;;;;;;16.17;11.87;;;;;;;5.24;49.11;95789.09;5037154;28;20252;-85
2022/03/05 07:24:36;;;;;;;17.60;13.03;;;;;;;5.45;48.56;95774.41;5051148;28;20193;-85
2022/03/05 07:27:03;;;;;;;16.87;13.10;;;;;;;4.95;49.54;95775.63;5044314;28;20640;-85
2022/03/05 07:29:31;;;;;;;16.73;13.00;;;;;;;4.61;50.09;95785.47;5055197;28;20220;-85
2022/03/05 07:31:58;;;;;;;17.80;13.23;;;;;;;4.43;51.40;95787.84;5054012;28;20233;-85
2022/03/05 07:34:24;;;;;;;18.30;13.47;;;;;;;4.86;50.42;95787.44;5055085;28;20796;-85
2022/03/05 07:36:51;;;;;;;17.00;13.07;;;;;;;5.31;49.11;95779.16;5050649;28;20248;-85
2022/03/05 07:39:17;;;;;;;15.67;12.87;;;;;;;5.00;49.52;95781.94;5035121;28;20225;-85
2022/03/05 07:41:44;;;;;;;16.23;12.50;;;;;;;5.20;49.25;95775.81;5033352;28;20647;-85
2022/03/05 07:44:10;;;;;;;19.30;13.67;;;;;;;5.38;48.63;95775.91;5034004;28;20198;-85
2022/03/05 07:46:38;;;;;;;19.50;12.80;;;;;;;5.71;48.88;95778.88;5034554;28;20202;-86
2022/03/05 07:49:05;;;;;;;19.13;13.77;;;;;;;5.80;48.71;95767.78;5034388;28;20202;-86
2022/03/05 07:51:32;;;;;;;16.07;12.30;;;;;;;6.27;51.46;95770.22;5033972;28;20240;-84
2022/03/05 07:53:58;;;;;;;20.60;11.03;;;;;;;7.26;59.01;95775.00;5034198;28;20307;-85
2022/03/05 07:56:25;;;;;;;15.60;11.67;;;;;;;8.25;54.16;95772.69;5033245;28;20206;-83
2022/03/05 07:58:51;;;;;;;17.17;12.50;;;;;;;8.77;45.91;95759.59;5033945;28;20610;-85
2022/03/05 08:01:17;;;;;;;17.97;13.03;;;;;;;8.69;43.90;95764.72;5033157;28;20230;-83
2022/03/05 08:03:45;;;;;;;15.53;12.07;;;;;;;9.10;48.33;95770.66;5032968;28;20222;-82
2022/03/05 08:06:12;;;;;;;16.97;13.37;;;;;;;8.90;42.87;95766.81;5032935;28;20209;-83
2022/03/05 08:08:38;;;;;;;16.23;12.60;;;;;;;8.45;42.59;95768.09;5028417;28;20202;-85
2022/03/05 08:11:05;;;;;;;19.63;14.37;;;;;;;7.95;43.15;95775.78;5029014;28;20260;-85
2022/03/05 08:13:31;;;;;;;20.40;14.03;;;;;;;7.91;44.58;95771.94;5031408;28;20233;-85
2022/03/05 08:15:58;;;;;;;28.43;22.23;;;;;;;7.49;44.63;95772.75;5030135;28;20244;-83
2022/03/05 08:18:24;;;;;;;19.83;15.77;;;;;;;7.10;45.49;95774.91;5030327;28;20202;-84
2022/03/05 08:20:52;;;;;;;18.20;14.80;;;;;;;7.16;44.73;95781.19;5029221;28;20226;-84
2022/03/05 08:23:19;;;;;;;18.60;15.23;;;;;;;7.22;45.68;95771.16;5030609;28;20217;-84
2022/03/05 08:25:45;;;;;;;17.53;14.53;;;;;;;7.32;45.42;95777.91;5030040;28;20220;-83
2022/03/05 08:28:12;;;;;;;17.97;14.37;;;;;;;7.31;45.28;95774.56;5030776;28;20260;-84
2022/03/05 08:30:40;;;;;;;15.80;13.53;;;;;;;7.05;45.22;95784.00;5029794;28;20230;-83
2022/03/05 08:33:06;;;;;;;16.43;14.07;;;;;;;6.77;46.44;95778.19;5024064;28;20210;-83
2022/03/05 08:35:33;;;;;;;18.27;13.80;;;;;;;6.93;46.03;95779.09;5026561;28;20211;-83
2022/03/05 08:38:01;;;;;;;18.50;14.53;;;;;;;7.16;45.82;95781.19;5030055;28;20206;-85
2022/03/05 08:40:27;;;;;;;18.33;14.13;;;;;;;6.94;45.73;95782.47;5029322;28;20234;-80
2022/03/05 08:42:53;;;;;;;29.80;22.93;;;;;;;7.05;45.84;95784.78;5028687;28;20229;-82
2022/03/05 08:45:20;;;;;;;27.07;20.80;;;;;;;7.55;45.46;95773.88;5030504;28;20194;-80
2022/03/05 08:47:47;;;;;;;17.03;14.77;;;;;;;8.29;43.85;95771.38;5022731;28;20202;-82
2022/03/05 08:50:14;;;;;;;16.07;14.03;;;;;;;8.28;43.77;95769.78;5029766;28;20230;-83
2022/03/05 08:52:41;;;;;;;19.50;14.77;;;;;;;8.74;42.90;95769.38;5032113;28;20221;-82
2022/03/05 08:55:13;;;;;;;19.67;14.70;;;;;;;8.81;41.84;95770.38;5029462;28;20222;-85
2022/03/05 08:57:40;;;;;;;17.67;14.40;;;;;;;9.12;42.54;95773.06;5030191;28;20206;-83
2022/03/05 09:00:09;;;;;;;17.97;15.27;;;;;;;9.31;41.19;95768.38;5025198;28;20226;-84
2022/03/05 09:02:36;;;;;;;16.30;13.57;;;;;;;8.74;41.63;95767.63;5030236;28;20214;-85
2022/03/05 09:05:03;;;;;;;15.77;12.97;;;;;;;8.24;42.45;95773.66;5030160;28;20202;-85
2022/03/05 09:07:30;;;;;;;15.67;13.30;;;;;;;7.92;43.30;95774.34;5030012;28;20194;-86
2022/03/05 09:09:57;;;;;;;17.63;13.93;;;;;;;8.22;43.18;95761.94;5028927;28;20201;-86
2022/03/05 09:12:27;;;;;;;15.23;12.90;;;;;;;7.78;42.88;95772.38;5030388;23;20234;-84
2022/03/05 09:14:54;;;;;;;16.73;13.13;;;;;;;7.36;43.93;95774.91;5013004;28;20222;-84
2022/03/05 09:17:23;;;;;;;15.13;12.97;;;;;;;6.61;45.38;95767.81;5006260;28;20206;-85
2022/03/05 09:19:49;;;;;;;15.10;12.50;;;;;;;6.61;45.58;95762.69;5016945;28;20206;-84
2022/03/05 09:22:17;;;;;;;14.57;11.70;;;;;;;6.55;44.72;95762.31;5009913;28;20226;-83
2022/03/05 09:24:43;;;;;;;14.83;12.20;;;;;;;6.43;45.43;95758.41;5013640;28;20203;-83
2022/03/05 09:27:10;;;;;;;15.90;13.23;;;;;;;6.81;45.64;95767.50;5005376;28;20194;-84
2022/03/05 09:29:38;;;;;;;14.77;12.50;;;;;;;6.98;44.97;95760.75;5014306;28;20198;-83
2022/03/05 09:32:05;;;;;;;18.60;12.77;;;;;;;7.68;43.62;95770.91;5009724;28;20239;-85
2022/03/05 09:34:31;;;;;;;13.67;11.60;;;;;;;7.54;41.94;95762.81;5020747;28;20241;-85
2022/03/05 09:36:58;;;;;;;15.17;11.60;;;;;;;7.39;42.12;95755.84;5011754;28;20195;-85
2022/03/05 09:39:24;;;;;;;16.40;12.10;;;;;;;7.38;42.53;95756.81;5009842;28;20195;-84
2022/03/05 09:41:51;;;;;;;14.93;12.17;;;;;;;6.76;43.38;95754.34;5009209;28;20230;-83
2022/03/05 09:44:18;;;;;;;15.20;12.60;;;;;;;6.65;44.33;95764.00;5010943;28;20187;-85
2022/03/05 09:46:47;;;;;;;14.13;11.30;;;;;;;6.21;44.31;95761.38;5010001;28;20203;-83
2022/03/05 09:49:15;;;;;;;14.17;11.90;;;;;;;5.87;44.74;95763.72;5013072;28;20195;-84
2022/03/05 09:51:41;;;;;;;13.67;11.83;;;;;;;5.86;45.52;95755.25;5013703;28;20237;-86
2022/03/05 09:54:07;;;;;;;15.33;11.70;;;;;;;5.93;44.91;95763.19;5018856;28;20194;-83
2022/03/05 09:56:34;;;;;;;12.00;9.80;;;;;;;6.20;44.19;95752.91;5028071;28;20203;-85
2022/03/05 09:59:00;;;;;;;13.13;10.57;;;;;;;6.09;43.65;95750.56;5026569;28;20206;-86
2022/03/05 10:01:27;;;;;;;12.93;10.00;;;;;;;5.91;44.13;95757.41;5025936;28;20218;-85
2022/03/05 10:03:56;;;;;;;14.40;10.77;;;;;;;5.41;43.54;95750.06;5013245;28;20229;-85
2022/03/05 10:06:24;;;;;;;10.77;9.20;;;;;;;5.49;43.74;95765.50;5004899;28;20198;-85
2022/03/05 10:08:52;;;;;;;11.90;9.70;;;;;;;5.59;43.77;95760.34;5020131;28;20198;-86
2022/03/05 10:11:19;;;;;;;11.13;8.90;;;;;;;5.62;43.85;95756.72;5012288;28;20278;-85
2022/03/05 10:13:46;;;;;;;13.50;9.07;;;;;;;5.80;42.29;95758.38;5022715;28;20232;-86
2022/03/05 10:16:29;;;;;;;12.67;9.37;;;;;;;5.95;42.25;95753.63;5030918;28;20217;-84
2022/03/05 10:18:57;;;;;;;10.90;8.77;;;;;;;5.60;41.22;95759.41;5028868;28;20234;-83
2022/03/05 10:21:29;;;;;;;12.10;9.63;;;;;;;5.40;42.26;95758.69;5022239;28;20674;-86
2022/03/05 10:24:08;;;;;;;20.33;15.33;;;;;;;5.49;41.93;95757.06;5023020;28;20214;-83
2022/03/05 10:26:50;;;;;;;10.27;7.80;;;;;;;5.34;41.23;95758.47;5029575;28;20860;-85
2022/03/05 10:29:25;;;;;;;9.50;7.17;;;;;;;5.69;40.67;95750.91;5025349;28;20191;-85
2022/03/05 10:32:01;;;;;;;9.80;7.50;;;;;;;5.70;39.32;95762.75;5014248;28;20237;-84
2022/03/05 10:34:30;;;;;;;7.23;6.30;;;;;;;5.68;39.29;95758.72;5015990;28;20187;-86
2022/03/05 10:37:00;;;;;;;10.60;7.33;;;;;;;6.13;38.48;95745.97;5024510;28;20290;-84
2022/03/05 10:39:28;;;;;;;8.70;7.27;;;;;;;5.93;38.99;95750.41;5021839;28;20190;-82
2022/03/05 10:41:55;;;;;;;8.20;7.30;;;;;;;6.10;38.90;95741.16;5024158;28;20231;-85
2022/03/05 10:44:23;;;;;;;8.50;7.40;;;;;;;5.96;39.37;95750.13;5024783;28;20226;-84
2022/03/05 10:46:56;;;;;;;11.93;8.03;;;;;;;6.30;40.22;95746.94;5030353;28;20545;-85
2022/03/05 10:49:26;;;;;;;18.77;9.93;;;;;;;7.05;41.20;95751.50;5012275;28;20222;-86
2022/03/05 10:52:06;;;;;;;15.70;10.27;;;;;;;7.57;40.98;95748.91;5027213;28;20305;-86
2022/03/05 10:54:35;;;;;;;10.20;8.73;;;;;;;7.73;40.76;95741.28;5024800;28;20201;-85
2022/03/05 10:57:08;;;;;;;10.40;8.47;;;;;;;7.21;39.80;95743.94;5020466;28;20317;-85
2022/03/05 10:59:39;;;;;;;12.93;9.70;;;;;;;7.41;40.60;95746.28;5021593;28;20662;-86
2022/03/05 11:02:07;;;;;;;13.77;8.73;;;;;;;7.84;39.96;95738.44;5029276;28;20227;-86
2022/03/05 11:04:35;;;;;;;12.17;8.97;;;;;;;8.20;38.65;95735.63;5026606;28;20629;-85
2022/03/05 11:07:03;;;;;;;11.13;8.87;;;;;;;7.83;37.70;95741.16;5021054;28;20263;-84
2022/03/05 11:09:31;;;;;;;11.33;9.33;;;;;;;7.51;38.28;95741.81;5014922;28;20588;-82
2022/03/05 11:12:00;;;;;;;11.53;8.87;;;;;;;7.96;37.57;95736.38;5015340;28;20611;-83
2022/03/05 11:14:28;;;;;;;9.93;8.27;;;;;;;8.55;36.73;95730.25;5019020;28;20203;-81
2022/03/05 11:16:56;;;;;;;10.30;8.40;;;;;;;9.12;35.80;95731.97;5013448;28;20217;-83
2022/03/05 11:19:23;;;;;;;20.20;15.53;;;;;;;9.55;35.57;95741.00;5017759;28;20203;-85
2022/03/05 11:21:49;;;;;;;15.57;11.30;;;;;;;9.66;34.38;95733.72;5029217;28;20222;-85
2022/03/05 11:24:19;;;;;;;10.53;8.40;;;;;;;9.21;33.87;95739.50;5016438;28;20207;-86
2022/03/05 11:26:48;;;;;;;11.73;8.10;;;;;;;8.89;34.93;95726.69;5015178;28;20199;-86
2022/03/05 11:29:17;;;;;;;10.40;8.53;;;;;;;8.48;35.68;95734.41;5019642;28;20246;-85